No particular awareness of the weather is required.    There are no Weather-warnings


Meteo18 Weather Cam more information Meteo18 Weather Cam


Thunder radar more information blitzortung!


Rain radar more information rain snow radar


Visit our other weather sites:

Template documentation
and downloads

And another site



Weather Underground History page Text

Daily Summary for January 6, 2016 Units:  Metric    English   Both
« Previous Day
Next Day »
Daily Weekly Monthly Yearly Custom
  High: Low: Average:
Temperature: 8.6 °C 3.3 °C 5.8 °C
Dew Point: 7.2 °C 2.8 °C 5 °C
Humidity: 98 % 89 % 95 %
Wind Speed: 6.4 km/h 0.0 km/h 0.9 km/h
Wind Gust: 14.5 km/h - -
Wind:- - SW
Pressure: 1002.3 hPa 996.5 hPa -
Precipitation: 4.3 mm    
Historical Graphs
 
 
Tabular Data for January 6, 2016
Time Temperature Dew Point Pressure Wind Wind Speed Wind Gust Humidity Rainfall Rate (Hourly)
00:02 6.0 °C 4.6 °C 996.8 hPa SW 4.8 km/h 12.9 km/h 91 % 0.0 mm
00:12 5.9 °C 4.7 °C 997.2 hPa SE 1.6 km/h 12.9 km/h 92 % 0.0 mm
00:22 5.8 °C 4.6 °C 997.2 hPa SW 6.4 km/h 9.7 km/h 92 % 0.0 mm
00:32 5.7 °C 4.7 °C 997.2 hPa Calm   8.0 km/h 93 % 0.3 mm
00:42 5.7 °C 4.8 °C 996.8 hPa SW 6.4 km/h 8.0 km/h 94 % 0.3 mm
00:52 5.6 °C 4.7 °C 996.8 hPa WSW 4.8 km/h 8.0 km/h 94 % 0.3 mm
01:02 5.5 °C 4.8 °C 996.8 hPa WSW 1.6 km/h 8.0 km/h 95 % 0.3 mm
01:12 5.4 °C 4.8 °C 996.8 hPa Calm   6.4 km/h 96 % 0.3 mm
01:17 5.4 °C 4.8 °C 996.8 hPa WSW 1.6 km/h 6.4 km/h 96 % 0.5 mm
01:27 5.3 °C 4.7 °C 996.8 hPa Calm   3.2 km/h 96 % 0.3 mm
01:32 5.3 °C 4.7 °C 996.8 hPa SW 1.6 km/h 3.2 km/h 96 % 0.3 mm
01:42 5.3 °C 4.7 °C 996.8 hPa SW 1.6 km/h 3.2 km/h 96 % 0.3 mm
01:52 5.3 °C 4.7 °C 996.8 hPa West 1.6 km/h 4.8 km/h 96 % 0.3 mm
02:02 5.3 °C 4.7 °C 996.8 hPa Calm   4.8 km/h 96 % 0.3 mm
02:09 5.3 °C 4.7 °C 996.8 hPa SW 3.2 km/h 4.8 km/h 96 % 0.3 mm
02:17 5.3 °C 4.7 °C 996.8 hPa WSW 1.6 km/h 3.2 km/h 96 % 0.0 mm
02:22 5.3 °C 4.7 °C 997.2 hPa SW 1.6 km/h 3.2 km/h 96 % 0.0 mm
02:32 5.3 °C 4.7 °C 996.8 hPa Calm   1.6 km/h 96 % 0.0 mm
02:37 5.3 °C 4.7 °C 996.8 hPa Calm   1.6 km/h 96 % 0.0 mm
02:42 5.3 °C 4.7 °C 996.8 hPa Calm   1.6 km/h 96 % 0.0 mm
02:52 5.3 °C 4.7 °C 997.2 hPa Calm   1.6 km/h 96 % 0.0 mm
02:57 5.2 °C 4.5 °C 997.2 hPa Calm   3.2 km/h 95 % 0.0 mm
03:07 5.2 °C 4.5 °C 997.2 hPa SW 1.6 km/h 4.8 km/h 95 % 0.0 mm
03:17 4.8 °C 3.9 °C 996.8 hPa Calm   4.8 km/h 94 % 0.0 mm
03:27 4.4 °C 3.5 °C 996.8 hPa Calm   3.2 km/h 94 % 0.0 mm
03:32 4.3 °C 3.6 °C 996.8 hPa ESE 1.6 km/h 3.2 km/h 95 % 0.0 mm
03:37 4.4 °C 3.7 °C 996.8 hPa South 1.6 km/h 3.2 km/h 95 % 0.0 mm
03:47 4.3 °C 3.6 °C 996.8 hPa Calm   6.4 km/h 95 % 0.0 mm
03:52 4.2 °C 3.5 °C 996.8 hPa Calm   4.8 km/h 95 % 0.0 mm
04:02 3.9 °C 3.2 °C 996.8 hPa Calm   4.8 km/h 95 % 0.0 mm
04:07 3.8 °C 3.1 °C 996.8 hPa Calm   4.8 km/h 95 % 0.0 mm
04:17 3.8 °C 3.2 °C 996.8 hPa Calm   3.2 km/h 96 % 0.0 mm
04:22 3.8 °C 3.1 °C 996.8 hPa SW 1.6 km/h 1.6 km/h 95 % 0.0 mm
04:32 3.7 °C 3.1 °C 996.8 hPa SW 1.6 km/h 3.2 km/h 96 % 0.0 mm
04:37 3.9 °C 3.3 °C 996.8 hPa Calm   3.2 km/h 96 % 0.0 mm
04:42 4.1 °C 3.5 °C 996.8 hPa SE 1.6 km/h 3.2 km/h 96 % 0.0 mm
04:47 4.3 °C 3.7 °C 996.8 hPa SW 3.2 km/h 3.2 km/h 96 % 0.0 mm
04:57 4.4 °C 3.8 °C 996.8 hPa Calm   4.8 km/h 96 % 0.3 mm
05:07 4.5 °C 3.9 °C 996.8 hPa Calm   4.8 km/h 96 % 0.3 mm
05:17 4.5 °C 3.9 °C 996.8 hPa Calm     96 % 0.3 mm
05:27 4.5 °C 3.9 °C 996.8 hPa Calm     96 % 0.3 mm
05:32 4.5 °C 3.9 °C 996.5 hPa Calm   1.6 km/h 96 % 0.3 mm
05:37 4.5 °C 3.9 °C 996.5 hPa Calm   1.6 km/h 96 % 0.3 mm
05:42 4.5 °C 3.9 °C 996.5 hPa Calm   1.6 km/h 96 % 0.5 mm
05:47 4.5 °C 3.9 °C 996.5 hPa Calm     96 % 0.5 mm
05:57 4.6 °C 4.0 °C 996.8 hPa Calm   1.6 km/h 96 % 0.5 mm
06:02 4.6 °C 4.0 °C 996.5 hPa Calm   1.6 km/h 96 % 0.5 mm
06:07 4.6 °C 4.0 °C 996.5 hPa Calm   3.2 km/h 96 % 0.8 mm
06:12 4.6 °C 4.0 °C 996.5 hPa Calm   3.2 km/h 96 % 1.0 mm
06:17 4.7 °C 4.1 °C 996.5 hPa Calm   3.2 km/h 96 % 1.3 mm
06:22 4.6 °C 4.0 °C 996.5 hPa Calm   3.2 km/h 96 % 1.5 mm
06:32 4.6 °C 4.0 °C 996.5 hPa West 1.6 km/h 3.2 km/h 96 % 1.5 mm
06:37 4.6 °C 4.0 °C 996.5 hPa Calm   1.6 km/h 96 % 1.8 mm
06:42 4.6 °C 4.0 °C 996.5 hPa Calm   1.6 km/h 96 % 1.5 mm
06:47 4.6 °C 4.0 °C 996.5 hPa Calm   1.6 km/h 96 % 1.5 mm
06:52 4.6 °C 4.2 °C 996.5 hPa Calm   1.6 km/h 97 % 1.5 mm
07:02 4.6 °C 4.2 °C 996.5 hPa WSW 1.6 km/h 1.6 km/h 97 % 1.5 mm
07:07 4.6 °C 4.2 °C 996.5 hPa Calm   3.2 km/h 97 % 1.3 mm
07:17 4.7 °C 4.3 °C 996.5 hPa Calm   3.2 km/h 97 % 1.0 mm
07:27 4.7 °C 4.3 °C 996.5 hPa Calm   1.6 km/h 97 % 0.8 mm
07:32 4.6 °C 4.2 °C 996.5 hPa Calm   1.6 km/h 97 % 0.8 mm
07:37 4.6 °C 4.2 °C 996.5 hPa Calm   3.2 km/h 97 % 0.8 mm
07:42 4.6 °C 4.2 °C 996.5 hPa Calm   8.0 km/h 97 % 0.8 mm
07:47 4.6 °C 4.2 °C 996.5 hPa Calm   8.0 km/h 97 % 0.8 mm
07:52 4.6 °C 4.2 °C 996.5 hPa Calm   8.0 km/h 97 % 0.5 mm
07:57 4.7 °C 4.3 °C 996.8 hPa Calm   6.4 km/h 97 % 0.5 mm
08:02 4.6 °C 4.2 °C 996.8 hPa Calm   6.4 km/h 97 % 0.5 mm
08:07 4.7 °C 4.3 °C 996.8 hPa Calm   6.4 km/h 97 % 0.8 mm
08:12 4.7 °C 4.3 °C 996.8 hPa Calm   4.8 km/h 97 % 0.5 mm
08:17 4.7 °C 4.3 °C 996.8 hPa Calm   4.8 km/h 97 % 0.8 mm
08:22 4.7 °C 4.3 °C 996.8 hPa Calm   3.2 km/h 97 % 0.5 mm
08:27 4.7 °C 4.3 °C 996.8 hPa Calm   3.2 km/h 97 % 0.8 mm
08:32 4.8 °C 4.4 °C 996.8 hPa Calm   1.6 km/h 97 % 0.8 mm
08:37 4.8 °C 4.5 °C 997.2 hPa Calm   1.6 km/h 98 % 0.5 mm
08:42 4.9 °C 4.6 °C 997.2 hPa Calm   1.6 km/h 98 % 0.5 mm
08:47 4.9 °C 4.6 °C 997.2 hPa Calm   1.6 km/h 98 % 0.5 mm
08:52 5.1 °C 4.8 °C 997.5 hPa SW 1.6 km/h 1.6 km/h 98 % 0.5 mm
08:57 5.2 °C 4.9 °C 997.5 hPa Calm   1.6 km/h 98 % 0.8 mm
09:02 5.3 °C 5.0 °C 997.5 hPa Calm   1.6 km/h 98 % 0.5 mm
09:07 5.3 °C 5.0 °C 997.5 hPa Calm   1.6 km/h 98 % 0.5 mm
09:12 5.3 °C 5.0 °C 997.9 hPa Calm   1.6 km/h 98 % 0.5 mm
09:17 5.4 °C 5.1 °C 997.9 hPa WSW 1.6 km/h 1.6 km/h 98 % 0.5 mm
09:22 5.4 °C 5.1 °C 997.9 hPa Calm   1.6 km/h 98 % 0.5 mm
09:27 5.5 °C 5.2 °C 997.9 hPa Calm   4.8 km/h 98 % 0.3 mm
09:32 5.6 °C 5.3 °C 998.2 hPa Calm   6.4 km/h 98 % 0.3 mm
09:37 5.7 °C 5.4 °C 998.2 hPa SE 1.6 km/h 6.4 km/h 98 % 0.3 mm
09:42 5.7 °C 5.4 °C 998.2 hPa Calm   6.4 km/h 98 % 0.3 mm
09:47 5.8 °C 5.5 °C 998.2 hPa Calm   6.4 km/h 98 % 0.3 mm
09:52 5.8 °C 5.4 °C 998.5 hPa SSW 1.6 km/h 6.4 km/h 97 % 0.3 mm
09:57 5.8 °C 5.4 °C 998.5 hPa Calm   4.8 km/h 97 % 0.0 mm
10:02 5.9 °C 5.5 °C 998.5 hPa SW 1.6 km/h 4.8 km/h 97 % 0.0 mm
10:07 6.0 °C 5.6 °C 998.5 hPa SW 3.2 km/h 4.8 km/h 97 % 0.0 mm
10:12 6.1 °C 5.7 °C 998.9 hPa SW 3.2 km/h 4.8 km/h 97 % 0.0 mm
10:17 6.1 °C 5.7 °C 998.9 hPa WSW 1.6 km/h 6.4 km/h 97 % 0.0 mm
10:22 6.2 °C 5.8 °C 998.9 hPa SSW 3.2 km/h 6.4 km/h 97 % 0.0 mm
10:27 6.3 °C 5.9 °C 999.2 hPa Calm   6.4 km/h 97 % 0.0 mm
10:32 6.4 °C 5.8 °C 999.2 hPa Calm   4.8 km/h 96 % 0.0 mm
10:37 6.4 °C 5.8 °C 999.2 hPa SSE 1.6 km/h 4.8 km/h 96 % 0.0 mm
10:42 6.5 °C 5.9 °C 999.2 hPa Calm   4.8 km/h 96 % 0.0 mm
10:47 6.5 °C 5.9 °C 999.5 hPa SW 1.6 km/h 4.8 km/h 96 % 0.0 mm
10:52 6.6 °C 6.0 °C 999.5 hPa Calm   6.4 km/h 96 % 0.0 mm
10:57 6.7 °C 6.1 °C 999.5 hPa SW 3.2 km/h 6.4 km/h 96 % 0.0 mm
11:02 6.9 °C 6.3 °C 999.5 hPa SSW 1.6 km/h 6.4 km/h 96 % 0.0 mm
11:07 7.1 °C 6.4 °C 999.5 hPa SW 3.2 km/h 6.4 km/h 95 % 0.0 mm
11:12 7.1 °C 6.4 °C 999.5 hPa Calm   8.0 km/h 95 % 0.0 mm
11:17 7.2 °C 6.5 °C 999.5 hPa Calm   8.0 km/h 95 % 0.0 mm
11:22 7.2 °C 6.3 °C 999.5 hPa SSW 3.2 km/h 8.0 km/h 94 % 0.0 mm
11:27 7.2 °C 6.3 °C 999.5 hPa Calm   4.8 km/h 94 % 0.0 mm
11:32 7.2 °C 6.3 °C 999.5 hPa Calm   8.0 km/h 94 % 0.0 mm
11:42 7.2 °C 6.3 °C 999.5 hPa Calm   8.0 km/h 94 % 0.0 mm
11:47 7.2 °C 6.3 °C 999.5 hPa Calm   6.4 km/h 94 % 0.0 mm
11:52 7.2 °C 6.3 °C 999.5 hPa Calm   6.4 km/h 94 % 0.0 mm
11:57 7.1 °C 6.2 °C 999.5 hPa Calm   6.4 km/h 94 % 0.0 mm
12:02 7.1 °C 6.4 °C 999.5 hPa Calm   6.4 km/h 95 % 0.3 mm
12:07 7.3 °C 6.6 °C 999.5 hPa SW 3.2 km/h 4.8 km/h 95 % 0.3 mm
12:12 7.3 °C 6.6 °C 999.9 hPa WSW 1.6 km/h 4.8 km/h 95 % 0.3 mm
12:17 7.4 °C 6.7 °C 999.5 hPa Calm   6.4 km/h 95 % 0.3 mm
12:22 7.5 °C 6.8 °C 999.5 hPa SW 4.8 km/h 8.0 km/h 95 % 0.3 mm
12:27 7.6 °C 6.7 °C 999.9 hPa SSW 1.6 km/h 8.0 km/h 94 % 0.3 mm
12:32 7.5 °C 6.6 °C 999.9 hPa Calm   6.4 km/h 94 % 0.3 mm
12:37 7.6 °C 6.7 °C 999.9 hPa Calm   6.4 km/h 94 % 0.3 mm
12:42 7.6 °C 6.7 °C 999.9 hPa Calm   4.8 km/h 94 % 0.3 mm
12:47 7.6 °C 6.7 °C 999.9 hPa SSW 1.6 km/h 3.2 km/h 94 % 0.3 mm
12:52 7.7 °C 6.8 °C 999.9 hPa WSW 1.6 km/h 4.8 km/h 94 % 0.3 mm
12:57 7.7 °C 6.6 °C 999.9 hPa SW 1.6 km/h 4.8 km/h 93 % 0.3 mm
13:02 7.7 °C 6.6 °C 999.9 hPa Calm   4.8 km/h 93 % 0.0 mm
13:07 7.8 °C 6.7 °C 999.9 hPa SSE 1.6 km/h 4.8 km/h 93 % 0.0 mm
13:12 7.9 °C 6.8 °C 999.9 hPa Calm   4.8 km/h 93 % 0.0 mm
13:17 8.1 °C 6.9 °C 1000.2 hPa SSW 1.6 km/h 6.4 km/h 92 % 0.0 mm
13:22 8.2 °C 7.0 °C 1000.2 hPa Calm   11.3 km/h 92 % 0.0 mm
13:27 8.2 °C 6.8 °C 1000.2 hPa Calm   11.3 km/h 91 % 0.0 mm
13:32 8.2 °C 6.8 °C 1000.2 hPa SSW 3.2 km/h 11.3 km/h 91 % 0.0 mm
13:42 8.2 °C 7.0 °C 1000.2 hPa SW 1.6 km/h 6.4 km/h 92 % 0.0 mm
13:52 8.4 °C 7.0 °C 1000.2 hPa Calm   6.4 km/h 91 % 0.0 mm
13:57 8.6 °C 6.9 °C 1000.2 hPa SSW 3.2 km/h 6.4 km/h 89 % 0.0 mm
14:02 8.6 °C 7.2 °C 1000.2 hPa WSW 3.2 km/h 8.0 km/h 91 % 0.0 mm
14:07 8.6 °C 6.9 °C 1000.2 hPa SW 6.4 km/h 8.0 km/h 89 % 0.0 mm
14:12 8.6 °C 6.9 °C 1000.2 hPa Calm   9.7 km/h 89 % 0.0 mm
14:17 8.5 °C 6.8 °C 1000.2 hPa Calm   9.7 km/h 89 % 0.0 mm
14:22 8.5 °C 6.8 °C 1000.6 hPa SW 3.2 km/h 9.7 km/h 89 % 0.0 mm
14:27 8.4 °C 6.9 °C 1000.2 hPa WSW 1.6 km/h 9.7 km/h 90 % 0.0 mm
14:32 8.4 °C 6.9 °C 1000.2 hPa SW 4.8 km/h 11.3 km/h 90 % 0.0 mm
14:37 8.2 °C 6.7 °C 1000.2 hPa Calm   11.3 km/h 90 % 0.0 mm
14:42 8.2 °C 6.8 °C 1000.6 hPa South 4.8 km/h 11.3 km/h 91 % 0.0 mm
14:47 8.1 °C 6.6 °C 1000.6 hPa SSW 1.6 km/h 14.5 km/h 90 % 0.0 mm
14:52 8.1 °C 6.7 °C 1000.6 hPa Calm   14.5 km/h 91 % 0.0 mm
14:57 8.0 °C 6.6 °C 1000.6 hPa SSW 1.6 km/h 14.5 km/h 91 % 0.0 mm
15:02 8.0 °C 6.6 °C 1000.6 hPa SW 1.6 km/h 6.4 km/h 91 % 0.0 mm
15:07 8.0 °C 6.5 °C 1000.6 hPa SW 1.6 km/h 9.7 km/h 90 % 0.0 mm
15:17 7.9 °C 6.4 °C 1000.6 hPa SW 1.6 km/h 9.7 km/h 90 % 0.0 mm
15:22 8.0 °C 6.5 °C 1000.6 hPa SSE 3.2 km/h 9.7 km/h 90 % 0.0 mm
15:32 8.1 °C 6.6 °C 1000.9 hPa West 3.2 km/h 8.0 km/h 90 % 0.0 mm
15:37 8.0 °C 6.5 °C 1000.9 hPa SW 3.2 km/h 9.7 km/h 90 % 0.0 mm
15:42 7.9 °C 6.5 °C 1000.9 hPa Calm   9.7 km/h 91 % 0.0 mm
15:52 7.8 °C 6.4 °C 1000.9 hPa SW 1.6 km/h 8.0 km/h 91 % 0.0 mm
15:57 7.8 °C 6.4 °C 1000.9 hPa WSW 3.2 km/h 8.0 km/h 91 % 0.0 mm
16:02 7.8 °C 6.4 °C 1000.9 hPa SW 1.6 km/h 8.0 km/h 91 % 0.0 mm
16:12 7.7 °C 6.2 °C 1001.2 hPa SW 1.6 km/h 8.0 km/h 90 % 0.0 mm
16:17 7.7 °C 6.2 °C 1001.2 hPa SSW 3.2 km/h 8.0 km/h 90 % 0.0 mm
16:22 7.7 °C 6.2 °C 1001.2 hPa SW 3.2 km/h 8.0 km/h 90 % 0.0 mm
16:27 7.6 °C 6.1 °C 1001.2 hPa Calm   8.0 km/h 90 % 0.0 mm
16:32 7.4 °C 5.9 °C 1001.2 hPa WSW 1.6 km/h 8.0 km/h 90 % 0.0 mm
16:37 7.3 °C 5.8 °C 1001.2 hPa WSW 1.6 km/h 8.0 km/h 90 % 0.0 mm
16:42 7.2 °C 5.7 °C 1001.2 hPa SW 1.6 km/h 6.4 km/h 90 % 0.0 mm
16:52 7.0 °C 5.6 °C 1001.6 hPa West 1.6 km/h 8.0 km/h 91 % 0.0 mm
16:57 6.9 °C 5.7 °C 1001.6 hPa Calm   8.0 km/h 92 % 0.0 mm
17:02 6.9 °C 5.7 °C 1001.6 hPa SE 1.6 km/h 8.0 km/h 92 % 0.0 mm
17:07 6.9 °C 5.7 °C 1001.6 hPa SW 1.6 km/h 8.0 km/h 92 % 0.0 mm
17:12 7.0 °C 5.8 °C 1001.6 hPa WSW 1.6 km/h 8.0 km/h 92 % 0.0 mm
17:17 7.0 °C 5.8 °C 1001.6 hPa WSW 1.6 km/h 8.0 km/h 92 % 0.0 mm
17:22 7.0 °C 5.8 °C 1001.6 hPa Calm   4.8 km/h 92 % 0.0 mm
17:27 7.0 °C 5.8 °C 1001.6 hPa Calm   3.2 km/h 92 % 0.0 mm
17:32 7.0 °C 5.8 °C 1001.2 hPa Calm   4.8 km/h 92 % 0.0 mm
17:37 7.1 °C 5.9 °C 1001.2 hPa South 1.6 km/h 4.8 km/h 92 % 0.0 mm
17:42 7.1 °C 5.9 °C 1001.2 hPa Calm   4.8 km/h 92 % 0.0 mm
17:47 7.1 °C 5.9 °C 1001.2 hPa Calm   4.8 km/h 92 % 0.0 mm
17:52 7.0 °C 5.8 °C 1001.2 hPa Calm   3.2 km/h 92 % 0.0 mm
17:57 6.9 °C 5.8 °C 1001.6 hPa SW 1.6 km/h 3.2 km/h 93 % 0.0 mm
18:02 6.8 °C 5.7 °C 1001.6 hPa Calm   3.2 km/h 93 % 0.0 mm
18:07 6.8 °C 5.9 °C 1001.9 hPa Calm   6.4 km/h 94 % 0.0 mm
18:12 6.8 °C 5.9 °C 1002.3 hPa SW 3.2 km/h 6.4 km/h 94 % 0.0 mm
18:17 6.8 °C 5.9 °C 1002.3 hPa Calm   4.8 km/h 94 % 0.0 mm
18:22 6.8 °C 5.9 °C 1002.3 hPa SW 6.4 km/h 6.4 km/h 94 % 0.0 mm
18:27 6.8 °C 5.9 °C 1002.3 hPa West 4.8 km/h 6.4 km/h 94 % 0.0 mm
18:32 6.9 °C 6.0 °C 1002.3 hPa Calm   8.0 km/h 94 % 0.0 mm
18:42 6.9 °C 6.0 °C 1002.3 hPa Calm   9.7 km/h 94 % 0.0 mm
18:47 6.9 °C 6.0 °C 1002.3 hPa Calm   9.7 km/h 94 % 0.0 mm
18:52 6.9 °C 6.0 °C 1001.9 hPa SW 1.6 km/h 6.4 km/h 94 % 0.0 mm
18:57 6.9 °C 6.0 °C 1001.9 hPa Calm   6.4 km/h 94 % 0.0 mm
19:02 6.8 °C 5.9 °C 1001.9 hPa Calm   6.4 km/h 94 % 0.0 mm
19:07 6.7 °C 5.8 °C 1001.9 hPa SW 1.6 km/h 3.2 km/h 94 % 0.0 mm
19:12 6.7 °C 5.8 °C 1001.9 hPa SW 1.6 km/h 4.8 km/h 94 % 0.0 mm
19:17 6.6 °C 5.7 °C 1001.9 hPa Calm   4.8 km/h 94 % 0.0 mm
19:22 6.6 °C 5.7 °C 1001.6 hPa SW 1.6 km/h 4.8 km/h 94 % 0.0 mm
19:27 6.4 °C 5.5 °C 1001.6 hPa Calm   4.8 km/h 94 % 0.0 mm
19:32 6.1 °C 5.2 °C 1001.6 hPa Calm   4.8 km/h 94 % 0.0 mm
19:37 5.8 °C 4.9 °C 1001.6 hPa Calm   4.8 km/h 94 % 0.0 mm
19:42 5.5 °C 4.6 °C 1001.9 hPa Calm   3.2 km/h 94 % 0.0 mm
19:52 5.0 °C 4.1 °C 1001.9 hPa Calm   3.2 km/h 94 % 0.0 mm
19:57 4.8 °C 4.1 °C 1001.6 hPa Calm   1.6 km/h 95 % 0.0 mm
20:02 4.7 °C 4.0 °C 1001.6 hPa Calm   1.6 km/h 95 % 0.0 mm
20:07 4.4 °C 3.7 °C 1001.6 hPa Calm     95 % 0.0 mm
20:12 4.3 °C 3.6 °C 1001.6 hPa Calm     95 % 0.0 mm
20:17 4.1 °C 3.4 °C 1001.6 hPa Calm   1.6 km/h 95 % 0.0 mm
20:22 3.9 °C 3.3 °C 1001.9 hPa Calm   1.6 km/h 96 % 0.0 mm
20:27 3.9 °C 3.3 °C 1001.9 hPa Calm     96 % 0.0 mm
20:32 3.8 °C 3.2 °C 1001.6 hPa Calm     96 % 0.0 mm
20:42 3.8 °C 3.4 °C 1001.2 hPa Calm   1.6 km/h 97 % 0.0 mm
20:47 3.9 °C 3.5 °C 1001.6 hPa Calm     97 % 0.0 mm
20:52 3.8 °C 3.4 °C 1001.2 hPa Calm     97 % 0.0 mm
21:02 3.4 °C 2.8 °C 1001.2 hPa Calm     96 % 0.0 mm
21:07 3.4 °C 3.0 °C 1001.2 hPa Calm     97 % 0.0 mm
21:12 3.3 °C 2.9 °C 1001.2 hPa WSW 1.6 km/h   97 % 0.0 mm
21:22 3.7 °C 3.4 °C 1000.9 hPa Calm   1.6 km/h 98 % 0.0 mm
21:27 3.8 °C 3.5 °C 1000.9 hPa Calm   1.6 km/h 98 % 0.0 mm
21:32 3.8 °C 3.5 °C 1000.6 hPa Calm   1.6 km/h 98 % 0.0 mm
21:37 3.8 °C 3.4 °C 1000.6 hPa Calm   1.6 km/h 97 % 0.0 mm
21:42 3.8 °C 3.4 °C 1000.6 hPa Calm     97 % 0.0 mm
21:47 3.7 °C 3.3 °C 1000.6 hPa Calm     97 % 0.0 mm
21:52 3.8 °C 3.4 °C 1000.6 hPa Calm     97 % 0.0 mm
21:57 3.8 °C 3.5 °C 1000.6 hPa Calm     98 % 0.0 mm
22:02 3.8 °C 3.5 °C 1000.6 hPa Calm     98 % 0.0 mm
22:07 3.8 °C 3.4 °C 1000.6 hPa Calm     97 % 0.0 mm
22:12 3.7 °C 3.3 °C 1000.6 hPa Calm     97 % 0.0 mm
22:17 3.7 °C 3.3 °C 1000.6 hPa Calm     97 % 0.0 mm
22:22 3.7 °C 3.3 °C 1000.6 hPa Calm     97 % 0.0 mm
22:27 3.7 °C 3.3 °C 1000.6 hPa Calm     97 % 0.0 mm
22:32 3.8 °C 3.5 °C 1000.6 hPa Calm   1.6 km/h 98 % 0.0 mm
22:37 3.9 °C 3.6 °C 1000.6 hPa Calm   1.6 km/h 98 % 0.0 mm
22:42 4.0 °C 3.7 °C 1000.6 hPa Calm   1.6 km/h 98 % 0.0 mm
22:47 4.1 °C 3.8 °C 1000.6 hPa Calm     98 % 0.0 mm
22:52 4.1 °C 3.8 °C 1000.6 hPa Calm     98 % 0.0 mm
22:57 4.3 °C 4.0 °C 1000.6 hPa Calm   1.6 km/h 98 % 0.0 mm
23:02 4.4 °C 4.1 °C 1000.6 hPa Calm   1.6 km/h 98 % 0.0 mm
23:07 4.6 °C 4.3 °C 1000.2 hPa Calm   1.6 km/h 98 % 0.0 mm
23:12 4.8 °C 4.5 °C 1000.2 hPa Calm   1.6 km/h 98 % 0.0 mm
23:17 4.9 °C 4.6 °C 1000.2 hPa Calm   1.6 km/h 98 % 0.0 mm
23:22 4.9 °C 4.6 °C 1000.2 hPa Calm   1.6 km/h 98 % 0.0 mm
23:27 4.9 °C 4.6 °C 1000.2 hPa Calm     98 % 0.0 mm
23:32 4.9 °C 4.6 °C 1000.2 hPa Calm     98 % 0.0 mm
23:37 4.8 °C 4.5 °C 999.9 hPa Calm     98 % 0.0 mm
23:42 4.8 °C 4.5 °C 999.9 hPa Calm     98 % 0.0 mm
23:47 4.8 °C 4.5 °C 999.9 hPa Calm     98 % 0.0 mm
23:52 4.8 °C 4.5 °C 999.9 hPa Calm     98 % 0.0 mm
23:57 4.7 °C 4.4 °C 999.5 hPa Calm     98 % 0.0 mm
Meteo18
Compliments of Weather Underground - 4 mb

Script developed by  Jim McMurry - jmcmurry@mwt.net Adapted for the template by  Wim van der Kuil - Leuven-Template.eu

You find our weather info also at:

European Weather Network

Weather Underground

Equipment we use:

Weather-station
Davis Vue

Weather-program
Meteohub

Weather-server
Raspberry PI 2 B+

Provider
1 and 1

Davis Vue

Meteohub

Raspberry PI 2 B+

1 and 1